createdAt,value
2023-10-18T00:01:41.026Z,7.44
2023-10-18T00:04:08.117Z,7.48
2023-10-18T00:06:36.331Z,7.50
2023-10-18T00:09:23.411Z,7.55
2023-10-18T00:11:50.234Z,7.56
2023-10-18T00:14:19.582Z,7.55
2023-10-18T00:16:46.509Z,7.54
2023-10-18T00:19:14.555Z,7.48
2023-10-18T00:21:41.585Z,7.50
2023-10-18T00:24:09.074Z,7.52
2023-10-18T00:26:35.860Z,7.45
2023-10-18T00:29:02.793Z,7.48
2023-10-18T00:31:30.321Z,7.41
2023-10-18T00:33:57.384Z,7.38
2023-10-18T00:36:24.334Z,7.38
2023-10-18T00:38:54.424Z,7.42
2023-10-18T00:41:27.585Z,7.35
2023-10-18T00:43:54.768Z,7.34
2023-10-18T00:46:26.810Z,7.30
2023-10-18T00:48:53.963Z,7.32
2023-10-18T00:51:20.889Z,7.34
2023-10-18T00:53:49.312Z,7.28
2023-10-18T00:56:18.996Z,7.31
2023-10-18T00:58:46.475Z,7.28
2023-10-18T01:01:13.761Z,7.24
2023-10-18T01:03:49.908Z,7.20
2023-10-18T01:06:27.716Z,7.25
2023-10-18T01:08:57.270Z,7.25
2023-10-18T01:11:30.415Z,7.21
2023-10-18T01:14:00.460Z,7.10
2023-10-18T01:16:36.816Z,7.13
2023-10-18T01:19:10.199Z,7.03
2023-10-18T01:21:38.367Z,7.03
2023-10-18T01:24:15.082Z,6.97
2023-10-18T01:26:42.250Z,6.92
2023-10-18T01:29:10.029Z,6.92
2023-10-18T01:31:46.971Z,6.86
2023-10-18T01:34:14.016Z,6.83
2023-10-18T01:36:41.023Z,6.77
2023-10-18T01:39:24.226Z,6.75
2023-10-18T01:41:54.647Z,6.76
2023-10-18T01:44:42.644Z,6.72
2023-10-18T01:47:10.319Z,6.66
2023-10-18T01:49:56.052Z,6.69
2023-10-18T01:52:23.678Z,6.59
2023-10-18T01:54:50.634Z,6.53
2023-10-18T01:57:17.451Z,6.55
2023-10-18T01:59:44.807Z,6.53
2023-10-18T02:02:12.159Z,6.45
2023-10-18T02:04:53.039Z,6.42
2023-10-18T02:07:21.385Z,6.38
2023-10-18T02:09:51.518Z,6.46
2023-10-18T02:12:21.582Z,6.41
2023-10-18T02:14:52.516Z,6.35
2023-10-18T02:17:20.372Z,6.29
2023-10-18T02:19:47.541Z,6.26
2023-10-18T02:22:14.838Z,6.29
2023-10-18T02:24:44.661Z,6.32
2023-10-18T02:27:17.579Z,6.31
2023-10-18T02:29:46.341Z,6.42
2023-10-18T02:32:43.476Z,6.35
2023-10-18T02:35:11.323Z,6.29
2023-10-18T02:37:38.256Z,6.25
2023-10-18T02:40:11.551Z,6.25
2023-10-18T02:42:39.261Z,6.34
2023-10-18T02:45:15.399Z,6.38
2023-10-18T02:47:43.122Z,6.35
2023-10-18T02:50:10.269Z,6.36
2023-10-18T02:52:37.070Z,6.36
2023-10-18T02:55:10.362Z,6.41
2023-10-18T02:57:37.333Z,6.36
2023-10-18T03:00:12.281Z,6.39
2023-10-18T03:02:42.392Z,6.35
2023-10-18T03:05:09.719Z,6.32
2023-10-18T03:07:36.580Z,6.26
2023-10-18T03:10:13.481Z,6.25
2023-10-18T03:12:45.826Z,6.22
2023-10-18T03:15:18.994Z,6.10
2023-10-18T03:17:49.510Z,6.13
2023-10-18T03:20:25.404Z,6.08
2023-10-18T03:22:52.955Z,6.04
2023-10-18T03:25:28.462Z,6.05
2023-10-18T03:27:59.667Z,6.08
2023-10-18T03:30:42.156Z,6.05
2023-10-18T03:33:09.416Z,5.98
2023-10-18T03:35:41.218Z,5.94
2023-10-18T03:38:22.995Z,5.97
2023-10-18T03:40:51.428Z,5.87
2023-10-18T03:43:27.758Z,5.95
2023-10-18T03:46:24.567Z,5.98
2023-10-18T03:48:56.033Z,5.89
2023-10-18T03:51:26.317Z,5.82
2023-10-18T03:53:57.694Z,5.76
2023-10-18T03:56:24.553Z,5.83
2023-10-18T03:58:55.622Z,5.80
2023-10-18T04:01:27.414Z,5.83
2023-10-18T04:03:54.600Z,5.82
2023-10-18T04:06:30.467Z,5.83
2023-10-18T04:08:59.447Z,5.83
2023-10-18T04:11:28.597Z,5.76
2023-10-18T04:13:55.499Z,5.63
2023-10-18T04:16:29.751Z,5.67
2023-10-18T04:19:01.203Z,5.77
2023-10-18T04:21:28.960Z,5.80
2023-10-18T04:23:58.398Z,5.78
2023-10-18T04:26:26.826Z,5.76
2023-10-18T04:28:59.448Z,5.73
2023-10-18T04:31:26.311Z,5.73
2023-10-18T04:33:54.982Z,5.82
2023-10-18T04:36:25.133Z,5.87
2023-10-18T04:38:53.134Z,5.93
2023-10-18T04:41:24.526Z,5.94
2023-10-18T04:43:55.175Z,5.94
2023-10-18T04:46:28.684Z,5.94
2023-10-18T04:48:58.505Z,6.01
2023-10-18T04:51:34.098Z,6.04
2023-10-18T04:54:02.516Z,6.13
2023-10-18T04:56:48.390Z,6.17
2023-10-18T04:59:20.650Z,6.17
2023-10-18T05:01:54.580Z,6.28
2023-10-18T05:04:34.888Z,6.28
2023-10-18T05:07:17.391Z,6.31
2023-10-18T05:09:46.334Z,6.29
2023-10-18T05:12:29.390Z,6.34
2023-10-18T05:15:00.000Z,6.38
2023-10-18T05:17:32.052Z,6.29
2023-10-18T05:19:58.944Z,6.22
2023-10-18T05:22:26.838Z,6.21
2023-10-18T05:25:23.091Z,6.20
2023-10-18T05:28:10.524Z,6.25
2023-10-18T05:30:57.839Z,6.18
2023-10-18T05:33:48.039Z,6.13
2023-10-18T05:36:20.812Z,6.24
2023-10-18T05:38:47.874Z,6.36
2023-10-18T05:41:28.377Z,6.38
2023-10-18T05:44:02.309Z,6.34
2023-10-18T05:46:30.743Z,6.34
2023-10-18T05:48:59.061Z,6.21
2023-10-18T05:54:01.017Z,6.18
2023-10-18T05:56:31.583Z,6.11
2023-10-18T05:59:18.915Z,6.11
2023-10-18T06:01:46.524Z,6.21
2023-10-18T06:04:14.963Z,6.13
2023-10-18T06:06:42.156Z,6.10
2023-10-18T06:09:12.556Z,6.05
2023-10-18T06:11:39.661Z,6.08
2023-10-18T06:14:07.066Z,6.13
2023-10-18T06:16:36.800Z,6.14
2023-10-18T06:19:08.862Z,6.13
2023-10-18T06:21:38.736Z,6.14
2023-10-18T06:24:12.081Z,6.21
2023-10-18T06:26:43.069Z,6.22
2023-10-18T06:33:41.652Z,6.22
2023-10-18T06:36:14.650Z,6.34
2023-10-18T06:38:43.918Z,6.38
2023-10-18T06:41:20.224Z,6.35
2023-10-18T06:43:48.302Z,6.42
2023-10-18T06:46:28.747Z,6.53
2023-10-18T06:49:11.510Z,6.61
2023-10-18T06:51:44.872Z,6.69
2023-10-18T06:54:14.864Z,6.84
2023-10-18T06:56:46.845Z,6.94
2023-10-18T06:59:14.877Z,7.00
2023-10-18T07:01:55.931Z,7.13
2023-10-18T07:04:41.912Z,7.23
2023-10-18T07:07:15.230Z,7.40
2023-10-18T07:09:45.859Z,7.64
2023-10-18T07:12:12.714Z,7.97
2023-10-18T07:14:40.043Z,8.20
2023-10-18T07:17:11.007Z,8.22
2023-10-18T07:19:49.952Z,8.34
2023-10-18T07:22:29.069Z,8.34
2023-10-18T07:24:56.159Z,8.44
2023-10-18T07:27:25.105Z,8.58
2023-10-18T07:29:52.025Z,8.72
2023-10-18T07:32:25.870Z,8.96
2023-10-18T07:34:55.625Z,9.09
2023-10-18T07:37:32.834Z,8.95
2023-10-18T07:40:01.563Z,9.20
2023-10-18T07:42:28.640Z,9.50
2023-10-18T07:44:57.024Z,9.80
2023-10-18T07:47:27.130Z,9.98
2023-10-18T07:49:59.834Z,10.02
2023-10-18T07:52:27.275Z,10.02
2023-10-18T07:54:54.264Z,9.85
2023-10-18T07:57:32.796Z,10.06
2023-10-18T08:00:19.553Z,10.32
2023-10-18T08:02:46.403Z,10.57
2023-10-18T08:05:14.151Z,10.69
2023-10-18T08:07:41.029Z,10.74
2023-10-18T08:10:10.118Z,10.91
2023-10-18T08:12:37.076Z,11.17
2023-10-18T08:15:15.211Z,11.04
2023-10-18T08:17:45.619Z,11.07
2023-10-18T08:20:22.735Z,11.11
2023-10-18T08:22:54.474Z,11.18
2023-10-18T08:25:33.639Z,11.01
2023-10-18T08:28:03.787Z,10.90
2023-10-18T08:30:59.790Z,10.94
2023-10-18T08:33:26.751Z,10.90
2023-10-18T08:36:00.069Z,11.06
2023-10-18T08:38:28.106Z,11.69
2023-10-18T08:41:13.078Z,11.91
2023-10-18T08:43:49.872Z,11.85
2023-10-18T08:46:17.118Z,11.94
2023-10-18T08:48:45.051Z,11.93
2023-10-18T08:51:11.845Z,11.93
2023-10-18T08:53:42.730Z,12.10
2023-10-18T08:56:10.336Z,12.24
2023-10-18T08:58:38.997Z,12.45
2023-10-18T09:01:07.429Z,12.11
2023-10-18T09:03:37.511Z,12.24
2023-10-18T09:06:06.370Z,12.20
2023-10-18T09:08:43.947Z,12.16
2023-10-18T09:11:23.505Z,12.11
2023-10-18T09:14:10.056Z,11.96
2023-10-18T09:16:48.286Z,12.11
2023-10-18T09:19:15.418Z,12.20
2023-10-18T09:21:51.078Z,12.18
2023-10-18T09:24:24.887Z,12.59
2023-10-18T09:26:52.332Z,12.90
2023-10-18T09:29:19.647Z,12.93
2023-10-18T09:31:52.213Z,13.48
2023-10-18T09:34:19.863Z,13.37
2023-10-18T09:36:54.864Z,13.34
2023-10-18T09:39:22.919Z,12.88
2023-10-18T09:41:52.195Z,12.93
2023-10-18T09:44:20.810Z,12.76
2023-10-18T09:46:51.085Z,12.79
2023-10-18T09:49:25.932Z,12.90
2023-10-18T09:51:57.671Z,12.85
2023-10-18T09:54:25.397Z,12.86
2023-10-18T09:56:56.375Z,13.06
2023-10-18T09:59:27.959Z,13.53
2023-10-18T10:02:02.307Z,13.89
2023-10-18T10:04:33.809Z,14.46
2023-10-18T10:07:21.694Z,14.53
2023-10-18T10:09:49.227Z,15.01
2023-10-18T10:12:20.074Z,15.36
2023-10-18T10:14:47.771Z,15.40
2023-10-18T10:17:19.541Z,15.04
2023-10-18T10:19:51.429Z,14.92
2023-10-18T10:22:25.459Z,14.71
2023-10-18T10:25:07.353Z,14.89
2023-10-18T10:27:54.686Z,15.69
2023-10-18T10:30:24.719Z,15.35
2023-10-18T10:32:56.606Z,16.14
2023-10-18T10:35:28.997Z,16.08
2023-10-18T10:38:11.874Z,16.04
2023-10-18T10:40:51.635Z,16.73
2023-10-18T10:43:21.715Z,16.11
2023-10-18T10:45:52.359Z,15.93
2023-10-18T10:48:19.488Z,15.70
2023-10-18T10:50:54.206Z,16.03
2023-10-18T10:53:46.140Z,16.35
2023-10-18T10:56:19.439Z,16.08
2023-10-18T10:59:09.749Z,16.13
2023-10-18T11:01:58.816Z,16.43
2023-10-18T11:04:30.193Z,16.29
2023-10-18T11:07:02.743Z,16.68
2023-10-18T11:09:34.273Z,16.45
2023-10-18T11:12:10.017Z,16.26
2023-10-18T11:14:37.492Z,16.77
2023-10-18T11:17:17.615Z,16.80
2023-10-18T11:19:52.944Z,16.28
2023-10-18T11:22:25.053Z,16.26
2023-10-18T11:24:54.742Z,16.20
2023-10-18T11:27:35.574Z,16.46
2023-10-18T11:30:24.272Z,16.01
2023-10-18T11:32:52.611Z,16.03
2023-10-18T11:35:41.426Z,15.93
2023-10-18T11:38:12.051Z,15.94
2023-10-18T11:40:45.681Z,15.80
2023-10-18T11:43:22.516Z,16.13
2023-10-18T11:46:04.869Z,16.18
2023-10-18T11:48:38.411Z,16.39
2023-10-18T11:51:07.929Z,16.29
2023-10-18T11:53:36.632Z,16.59
2023-10-18T11:56:10.067Z,16.42
2023-10-18T11:58:38.617Z,16.18
2023-10-18T12:01:19.572Z,16.24
2023-10-18T12:03:50.325Z,16.21
2023-10-18T12:06:23.017Z,16.25
2023-10-18T12:09:27.112Z,16.61
2023-10-18T12:11:54.798Z,16.36
2023-10-18T12:14:24.155Z,15.87
2023-10-18T12:16:53.777Z,15.90
2023-10-18T12:19:21.580Z,16.31
2023-10-18T12:21:55.949Z,16.31
2023-10-18T12:24:23.953Z,16.90
2023-10-18T12:26:55.358Z,17.15
2023-10-18T12:29:28.436Z,17.66
2023-10-18T12:32:01.032Z,17.75
2023-10-18T12:34:31.631Z,17.83
2023-10-18T12:36:59.859Z,17.45
2023-10-18T12:39:27.368Z,17.51
2023-10-18T12:41:54.955Z,17.63
2023-10-18T12:44:26.862Z,17.58
2023-10-18T12:46:57.084Z,17.95
2023-10-18T12:49:24.259Z,18.02
2023-10-18T12:52:02.037Z,17.61
2023-10-18T12:54:35.835Z,17.52
2023-10-18T12:57:13.851Z,17.61
2023-10-18T12:59:58.921Z,17.61
2023-10-18T13:02:55.378Z,17.35
2023-10-18T13:05:23.619Z,17.54
2023-10-18T13:07:56.908Z,17.50
2023-10-18T13:10:33.458Z,17.18
2023-10-18T13:13:06.283Z,17.06
2023-10-18T13:15:36.020Z,17.26
2023-10-18T13:18:03.063Z,17.34
2023-10-18T13:20:36.405Z,17.10
2023-10-18T13:23:08.479Z,17.38
2023-10-18T13:25:53.208Z,17.24
2023-10-18T13:28:26.494Z,17.50
2023-10-18T13:30:54.647Z,17.50
2023-10-18T13:33:24.699Z,17.79
2023-10-18T13:35:51.608Z,17.81
2023-10-18T13:38:18.475Z,17.51
2023-10-18T13:40:45.423Z,17.34
2023-10-18T13:43:14.759Z,17.00
2023-10-18T13:45:43.258Z,17.00
2023-10-18T13:48:13.126Z,17.03
2023-10-18T13:50:40.192Z,16.58
2023-10-18T13:53:09.228Z,16.58
2023-10-18T13:55:38.889Z,16.38
2023-10-18T13:58:09.269Z,16.35
2023-10-18T14:00:42.010Z,16.32
2023-10-18T14:03:15.438Z,16.22
2023-10-18T14:05:42.641Z,16.07
2023-10-18T14:08:13.611Z,16.00
2023-10-18T14:10:42.730Z,15.86
2023-10-18T14:13:10.496Z,15.84
2023-10-18T14:15:39.587Z,15.71
2023-10-18T14:18:07.655Z,15.77
2023-10-18T14:20:38.681Z,15.64
2023-10-18T14:23:08.875Z,15.62
2023-10-18T14:25:39.427Z,15.83
2023-10-18T14:28:07.077Z,15.67
2023-10-18T14:30:36.032Z,15.78
2023-10-18T14:33:08.106Z,15.66
2023-10-18T14:35:39.060Z,15.62
2023-10-18T14:38:09.896Z,15.49
2023-10-18T14:40:40.025Z,15.63
2023-10-18T14:43:13.635Z,15.56
2023-10-18T14:45:41.627Z,15.54
2023-10-18T14:48:08.559Z,15.42
2023-10-18T14:50:37.341Z,15.38
2023-10-18T14:53:05.153Z,15.38
2023-10-18T14:55:32.025Z,15.38
2023-10-18T14:57:58.776Z,15.32
2023-10-18T15:00:26.733Z,15.29
2023-10-18T15:02:54.273Z,15.21
2023-10-18T15:05:22.588Z,15.15
2023-10-18T15:07:49.962Z,15.06
2023-10-18T15:10:18.358Z,14.98
2023-10-18T15:12:45.209Z,15.04
2023-10-18T15:15:15.633Z,14.91
2023-10-18T15:17:44.120Z,14.94
2023-10-18T15:20:15.683Z,14.85
2023-10-18T15:22:42.534Z,14.78
2023-10-18T15:25:10.749Z,14.74
2023-10-18T15:27:37.786Z,14.74
2023-10-18T15:30:06.457Z,14.70
2023-10-18T15:32:33.911Z,14.68
2023-10-18T15:35:01.255Z,14.64
2023-10-18T15:37:28.700Z,14.60
2023-10-18T15:39:56.457Z,14.61
2023-10-18T15:42:27.297Z,14.54
2023-10-18T15:44:58.639Z,14.53
2023-10-18T15:47:25.690Z,14.57
2023-10-18T15:49:55.462Z,14.53
2023-10-18T15:52:22.289Z,14.53
2023-10-18T15:54:50.894Z,14.47
2023-10-18T15:57:17.856Z,14.46
2023-10-18T15:59:44.615Z,14.41
2023-10-18T16:02:14.218Z,14.41
2023-10-18T16:04:42.801Z,14.43
2023-10-18T16:07:09.732Z,14.38
2023-10-18T16:09:36.545Z,14.38
2023-10-18T16:12:03.996Z,14.36
2023-10-18T16:14:31.659Z,14.34
2023-10-18T16:17:05.253Z,14.34
2023-10-18T16:19:32.824Z,14.33
2023-10-18T16:22:00.660Z,14.36
2023-10-18T16:24:27.745Z,14.34
2023-10-18T16:26:54.592Z,14.30
2023-10-18T16:29:22.195Z,14.30
2023-10-18T16:31:50.682Z,14.27
2023-10-18T16:34:17.651Z,14.33
2023-10-18T16:36:44.802Z,14.32
2023-10-18T16:39:18.943Z,14.32
2023-10-18T16:41:45.951Z,14.34
2023-10-18T16:44:12.943Z,14.30
2023-10-18T16:46:39.927Z,14.32
2023-10-18T16:49:13.413Z,14.33
2023-10-18T16:51:43.380Z,14.33
2023-10-18T16:54:10.293Z,14.32
2023-10-18T16:56:41.545Z,14.33
2023-10-18T16:59:08.504Z,14.33
2023-10-18T17:01:35.357Z,14.30
2023-10-18T17:04:02.514Z,14.29
2023-10-18T17:06:30.506Z,14.29
2023-10-18T17:08:58.879Z,14.27
2023-10-18T17:11:28.343Z,14.25
2023-10-18T17:13:58.350Z,14.25
2023-10-18T17:16:26.622Z,14.22
2023-10-18T17:18:56.154Z,14.22
2023-10-18T17:21:23.535Z,14.22
2023-10-18T17:23:50.451Z,14.22
2023-10-18T17:26:19.377Z,14.25
2023-10-18T17:28:48.135Z,14.16
2023-10-18T17:31:15.611Z,14.13
2023-10-18T17:33:42.402Z,14.09
2023-10-18T17:36:11.291Z,14.05
2023-10-18T17:38:38.127Z,13.99
2023-10-18T17:41:06.171Z,13.96
2023-10-18T17:43:33.150Z,14.02
2023-10-18T17:46:00.187Z,13.98
2023-10-18T17:48:28.294Z,13.88
2023-10-18T17:50:56.865Z,13.92
2023-10-18T17:53:23.800Z,13.86
2023-10-18T17:58:42.917Z,13.79
2023-10-18T18:01:25.674Z,13.82
2023-10-18T18:03:54.773Z,13.81
2023-10-18T18:06:22.051Z,13.81
2023-10-18T18:08:48.961Z,13.79
2023-10-18T18:11:16.977Z,13.78
2023-10-18T18:13:46.937Z,13.78
2023-10-18T18:16:15.723Z,13.71
2023-10-18T18:18:44.959Z,13.71
2023-10-18T18:21:13.169Z,13.75
2023-10-18T18:23:40.276Z,13.72
2023-10-18T18:26:16.088Z,13.65
2023-10-18T18:28:43.182Z,13.68
2023-10-18T18:31:10.778Z,13.69
2023-10-18T18:33:37.916Z,13.68
2023-10-18T18:36:05.266Z,13.64
2023-10-18T18:38:32.063Z,13.64
2023-10-18T18:40:59.043Z,13.64
2023-10-18T18:43:29.037Z,13.64
2023-10-18T18:45:59.529Z,13.61
2023-10-18T18:48:26.613Z,13.58
2023-10-18T18:50:53.533Z,13.58
2023-10-18T18:53:20.459Z,13.55
2023-10-18T18:55:47.600Z,13.57
2023-10-18T18:58:14.615Z,13.54
2023-10-18T19:00:41.341Z,13.54
2023-10-18T19:03:08.951Z,13.53
2023-10-18T19:05:35.970Z,13.53
2023-10-18T19:08:07.785Z,13.54
2023-10-18T19:10:35.411Z,13.54
2023-10-18T19:13:03.715Z,13.55
2023-10-18T19:15:30.797Z,13.50
2023-10-18T19:17:57.792Z,13.58
2023-10-18T19:20:27.916Z,13.55
2023-10-18T19:22:55.755Z,13.53
2023-10-18T19:25:22.871Z,13.48
2023-10-18T19:27:49.939Z,13.51
2023-10-18T19:30:21.133Z,13.48
2023-10-18T19:32:48.002Z,13.50
2023-10-18T19:35:16.565Z,13.51
2023-10-18T19:37:43.610Z,13.47
2023-10-18T19:40:13.202Z,13.41
2023-10-18T19:42:41.496Z,13.46
2023-10-18T19:45:09.988Z,13.38
2023-10-18T19:47:38.269Z,13.38
2023-10-18T19:50:06.414Z,13.34
2023-10-18T19:52:33.667Z,13.37
2023-10-18T19:55:00.550Z,13.33
2023-10-18T19:57:27.472Z,13.31
2023-10-18T19:59:55.580Z,13.33
2023-10-18T20:02:22.697Z,13.30
2023-10-18T20:04:49.785Z,13.28
2023-10-18T20:07:17.382Z,13.16
2023-10-18T20:09:45.111Z,13.06
2023-10-18T20:12:12.380Z,12.79
2023-10-18T20:14:39.428Z,12.58
2023-10-18T20:17:08.875Z,12.24
2023-10-18T20:19:35.866Z,11.94
2023-10-18T20:22:02.901Z,11.82
2023-10-18T20:24:29.730Z,11.60
2023-10-18T20:26:56.579Z,11.42
2023-10-18T20:29:24.234Z,11.28
2023-10-18T20:31:51.624Z,11.22
2023-10-18T20:34:19.372Z,11.07
2023-10-18T20:36:46.166Z,11.10
2023-10-18T20:39:18.674Z,11.04
2023-10-18T20:41:45.852Z,10.95
2023-10-18T20:44:22.782Z,10.91
2023-10-18T20:46:50.099Z,10.85
2023-10-18T20:49:21.783Z,10.81
2023-10-18T20:51:53.177Z,10.79
2023-10-18T20:54:21.324Z,10.77
2023-10-18T20:56:55.132Z,10.71
2023-10-18T20:59:32.577Z,10.70
2023-10-18T21:02:04.463Z,10.67
2023-10-18T21:04:34.768Z,10.63
2023-10-18T21:07:01.935Z,10.64
2023-10-18T21:09:30.072Z,10.60
2023-10-18T21:11:58.289Z,10.63
2023-10-18T21:14:26.360Z,10.60
2023-10-18T21:16:53.378Z,10.60
2023-10-18T21:19:20.473Z,10.60
2023-10-18T21:21:47.269Z,10.59
2023-10-18T21:24:14.051Z,10.60
2023-10-18T21:26:41.613Z,10.56
2023-10-18T21:29:08.627Z,10.55
2023-10-18T21:31:39.031Z,10.57
2023-10-18T21:34:05.996Z,10.53
2023-10-18T21:36:35.488Z,10.57
2023-10-18T21:39:02.793Z,10.59
2023-10-18T21:41:29.758Z,10.56
2023-10-18T21:43:56.694Z,10.55
2023-10-18T21:46:23.865Z,10.55
2023-10-18T21:48:52.607Z,10.56
2023-10-18T21:51:19.706Z,10.52
2023-10-18T21:53:48.257Z,10.56
2023-10-18T21:56:16.452Z,10.52
2023-10-18T21:58:47.841Z,10.53
2023-10-18T22:01:34.425Z,10.52
2023-10-18T22:04:05.376Z,10.52
2023-10-18T22:06:35.375Z,10.52
2023-10-18T22:09:21.850Z,10.50
2023-10-18T22:11:50.292Z,10.53
2023-10-18T22:14:20.296Z,10.56
2023-10-18T22:16:55.785Z,10.59
2023-10-18T22:19:34.490Z,10.63
2023-10-18T22:22:13.437Z,10.61
2023-10-18T22:24:40.936Z,10.67
2023-10-18T22:27:16.420Z,10.66
2023-10-18T22:29:51.685Z,10.71
2023-10-18T22:32:20.951Z,10.77
2023-10-18T22:34:52.133Z,10.77
2023-10-18T22:37:22.851Z,10.84
2023-10-18T22:40:00.052Z,10.88
2023-10-18T22:42:31.724Z,10.90
2023-10-18T22:45:24.947Z,10.91
2023-10-18T22:47:59.696Z,10.97
2023-10-18T22:50:39.432Z,10.95
2023-10-18T22:53:12.053Z,11.02
2023-10-18T22:55:40.331Z,11.07
2023-10-18T22:58:13.594Z,11.10
2023-10-18T23:00:42.748Z,11.08
2023-10-18T23:03:13.362Z,11.11
2023-10-18T23:05:47.932Z,11.11
2023-10-18T23:08:24.894Z,11.15
2023-10-18T23:10:57.224Z,11.15
2023-10-18T23:13:38.067Z,11.15
2023-10-18T23:16:11.276Z,11.19
2023-10-18T23:18:38.225Z,11.19
2023-10-18T23:21:15.690Z,11.22
2023-10-18T23:23:56.255Z,11.17
2023-10-18T23:26:42.947Z,11.21
2023-10-18T23:29:16.573Z,11.21
2023-10-18T23:31:53.319Z,11.17
2023-10-18T23:34:26.474Z,11.17
2023-10-18T23:37:05.573Z,11.19
2023-10-18T23:39:41.499Z,11.27
2023-10-18T23:42:20.056Z,11.31
2023-10-18T23:44:56.789Z,11.29
2023-10-18T23:47:40.260Z,11.35
2023-10-18T23:50:25.399Z,11.34
2023-10-18T23:52:56.506Z,11.31
2023-10-18T23:55:28.935Z,11.32
